Airports

 


Airport Name Latest METAR Visual Conditions
Cincinnati/Northern Kentucky International (CVG) KCVG 132252Z 01007KT 10SM SCT050 BKN220 30/19 A2999 RMK AO2 SLP144 T03000189 VFR
John Glenn Columbus International (CMH) KCMH 132251Z 06005KT 10SM FEW070 FEW130 BKN250 31/17 A2997 RMK AO2 SLP142 T03110167 VFR
Yeager (CRW) KCRW 132254Z 14007KT 10SM TS SCT050CB SCT120 31/19 A2997 RMK AO2 LTG DSNT S AND SW TSE2157B35 SLP137 OCNL LTGICCG S TS S MOV NE T03060189 VFR
James M Cox Dayton International (DAY) KDAY 132256Z 02008KT 10SM SCT046 BKN240 28/18 A3003 RMK AO2 SLP161 T02830183 VFR
Evansville Regional (EVV) KEVV 132254Z 09006KT 10SM CLR 23/19 A2998 RMK AO2 LTG DSNT N AND NE RAE14 SLP148 P0000 T02280194 VFR
Indianapolis International (IND) KIND 132254Z 33007KT 10SM FEW042 BKN190 BKN250 27/20 A3000 RMK AO2 SLP153 T02720200 VFR
Blue Grass (LEX) KLEX 132254Z 36007KT 10SM FEW046 29/21 A2998 RMK AO2 SLP143 T02890206 VFR
Louisville Muhammad Ali International (SDF) KSDF 132256Z 28005KT 10SM FEW035 FEW065 SCT110 OVC180 24/22 A2999 RMK AO2 SLP151 T02440222 VFR
Anderson Municipal-Darlington Field (AID) KAID 132315Z AUTO 00000KT 10SM SCT038 28/21 A3003 RMK AO2 T02750205 VFR
Columbus Municipal (BAK) KBAK 132245Z 04005KT 10SM SCT050 28/22 A3000 VFR
Monroe County (BMG) KBMG 132253Z 18006KT 10SM FEW033 FEW060 27/21 A3001 RMK AO2 SLP154 T02670206 VFR
Wright-Patterson Air Force Base (FFO) KFFO 132256Z 36007KT 10SM FEW055 BKN210 29/17 A3001 RMK AO2A SLP160 T02860171 VFR
Godman Army Airfield (FTK) KFTK 132256Z AUTO 34003KT 10SM BKN140 24/24 A3000 RMK AO2 DZB10E12 SLP156 P0000 T02350235 VFR
Himsel Army Airfield (HBE) No weather for this Airport Unknown
Tri-State/Milton J Ferguson Field (HTS) KHTS 132251Z 08003KT 10SM FEW080 30/21 A2996 RMK AO2 SLP136 T03000206 VFR
Terre Haute Regional (HUF) KHUF 132253Z 02003KT 10SM CLR 27/23 A3000 RMK AO2 SLP154 T02720233 VFR
Wilmington Air Park (ILN) KILN 132254Z AUTO 03005KT 10SM CLR 28/20 A3000 RMK AO2 SLP149 T02830200 VFR
Rickenbacker International (LCK) KLCK 132255Z AUTO 26009KT 10SM OVC065 31/18 A2997 RMK AO2 T03050179 VFR
Bowman Field (LOU) KLOU 132253Z 28003KT 10SM BKN070 25/22 A2999 RMK AO2 SLP150 T02500222 VFR
Cincinnati Municipal Airport Lunken Field (LUK) KLUK 132253Z 06004KT 10SM SCT055 SCT070 30/21 A2998 RMK AO2 SLP146 T03000211 VFR
Delaware County Regional (MIE) KMIE 132253Z 08004KT 10SM CLR 28/21 A3002 RMK AO2 SLP156 T02830206 VFR
Ohio State University (OSU) KOSU 132253Z 01009KT 10SM CLR 30/18 A2999 RMK AO2 SLP148 T03000178 VFR
Owensboro-Daviess County Regional (OWB) KOWB 132256Z 06007KT 10SM VCTS -RA FEW031 BKN075 OVC090 23/23 A2998 RMK AO2 SLP150 P0007 T02330233 VFR
Mid-Ohio Valley Regional (PKB) KPKB 132253Z 08003KT 10SM CLR 33/18 A2996 RMK AO2 SLP135 T03280178 VFR
Bolton Field (TZR) KTZR 132255Z 30013KT 10SM SKC 29/18 A3000 VFR
Middlesboro-Bell County (1A6) K1A6 132255Z AUTO 00000KT 10SM CLR 30/23 A2998 RMK AO2 T02960230 VFR
Georgetown-Scott County Regional (27K) K27K 121735Z AUTO 00000KT 10SM SCT033 28/20 A3008 RMK AO1 VFR
Madisonville Regional (2I0) K2I0 132255Z AUTO 05004KT 10SM SCT037 SCT044 SCT049 25/21 A2999 RMK AO2 T02500211 VFR
Mason County (3I2) K3I2 132255Z AUTO 00000KT 7SM CLR 29/23 A2996 RMK AO2 T02900232 VFR
Knox County (4I3) K4I3 132255Z AUTO 00000KT 10SM CLR 30/16 A3002 RMK AO2 VFR
Lebanon Springfield-George Hoerter Field (6I2) K6I2 132245Z AUTO 28003KT 10SM CLR 24/24 A3000 RMK AO2 VFR
Logan County (6L4) K6L4 132255Z AUTO 00000KT 1/4SM VCTS FG BKN003 OVC095 22/22 A3003 RMK AO2 LTG DSNT SW-NW VIS M1/4V5 LIFR
Livingston Municipal (8A3) K8A3 132250Z AUTO 01005KT 10SM CLR 23/21 A3001 RMK A01 VFR
Kee Field (I16) KI16 132255Z AUTO 7SM SCT002 24/23 A3008 RMK AO2 T02350229 VFR
Greene County-Lewis A Jackson Regional (I19) KI19 132255Z AUTO 00000KT 10SM CLR 27/17 A3002 RMK AO2 T02740171 VFR
Fayette County (I23) KI23 132255Z AUTO 31003KT 10SM CLR 27/21 A3000 RMK AO1 VFR
Tucker-Guthrie Memorial (I35) KI35 132255Z AUTO 00000KT 10SM CLR 28/22 A3000 RMK AO2 T02810215 VFR
James A Rhodes (I43) KI43 132315Z AUTO 00000KT 10SM CLR 29/20 A2998 RMK AO2 VFR
Cincinnati West (I67) KI67 132255Z AUTO 01003KT 10SM CLR 29/19 A2998 RMK AO1 VFR
Clermont County (I69) KI69 132315Z AUTO 00000KT 10SM CLR 28/21 A3001 RMK AO2 T02790205 VFR
Grimes Field (I74) KI74 132255Z AUTO 01004KT 10SM CLR 27/16 A3003 RMK AO2 VFR
Hancock Co-Ron Lewis Field (KY8) KKY8 132035Z AUTO 15006G24KT 1/2SM FG BKN002 BKN027 OVC031 23/23 A3002 RMK A01 LIFR
Brazil Clay County (0I2) No weather for this Airport Unknown
Cynthiana-Harrison County (0I8) No weather for this Airport Unknown
Holmes County (10G) No weather for this Airport Unknown
Ona Airpark (12V) No weather for this Airport Unknown
Mc Creary County (18I) No weather for this Airport Unknown
Casey Municipal (1H8) No weather for this Airport Unknown
Jamestown Municipal (2A1) No weather for this Airport Unknown
Hendricks County-Gordon Graham Fld (2R2) No weather for this Airport Unknown
Sky King (3I3) No weather for this Airport Unknown
Dayton-Phillipsburg (3I7) No weather for this Airport Unknown
Morrow County (4I9) No weather for this Airport Unknown
Sheridan (5I4) No weather for this Airport Unknown
Indianapolis Downtown (8A4) No weather for this Airport Unknown
Piqua Airport- Hartzell Field (I17) No weather for this Airport Unknown
Jackson County (I18) No weather for this Airport Unknown
Randolph County (I22) No weather for this Airport Unknown
Greensburg Municipalcipal (I34) No weather for this Airport Unknown
Richard Downing (I40) No weather for this Airport Unknown
Clinton Field (I66) No weather for this Airport Unknown
Warren County/John Lane Field (I68) No weather for this Airport Unknown
Perry County (I86) No weather for this Airport Unknown
Breckinridge County (I93) No weather for this Airport Unknown
Hardin County (I95) No weather for this Airport Unknown
Russell County (K24) No weather for this Airport Unknown
Gene Snyder (K62) No weather for this Airport Unknown
Leitchfield-Grayson Co (M20) No weather for this Airport Unknown
Taylor County (AAS) KAAS 100335Z AUTO 00000KT 5SM OVC090 22/22 A3016 RMK AO1 MVFR
Mount Carmel Municipal (AJG) KAJG 132255Z AUTO 00000KT 10SM CLR 27/23 A2999 RMK AO2 LTG DSNT E T02730234 VFR
Alexander Salamon (AMT) No weather for this Airport Unknown
Lima Allen County (AOH) No weather for this Airport Unknown
Neil Armstrong (AXV) KAXV 132315Z AUTO 35004KT 10SM CLR 25/19 A3003 RMK AO2 VFR
Virgil I Grissom Municipal (BFR) No weather for this Airport Unknown
Raleigh County Memorial (BKW) KBKW 132251Z AUTO 00000KT 10SM CLR 24/21 A3007 RMK AO2 LTG DSNT NW-NE SLP149 T02440206 VFR
Mercer County (BLF) KBLF 132252Z AUTO 10003KT 10SM CLR 22/20 A3010 RMK AO2 SLP162 T02170200 VFR
Samuels Field (BRY) KBRY 132315Z AUTO 35003KT 10SM CLR 24/22 A2998 RMK AO1 VFR
Williamsburg-Whitley County (BYL) KBYL 132255Z AUTO 34005KT 10SM FEW050 26/22 A3001 RMK AO1 VFR
Mettel Field (CEV) No weather for this Airport Unknown
Crawfordsville Regional (CFJ) KCFJ 132255Z AUTO 02004KT 10SM CLR 24/20 A3002 RMK AO2 T02400196 VFR
Wendell H Ford (CPF) No weather for this Airport Unknown
Lakefield (CQA) No weather for this Airport Unknown
Carmi Municipal (CUL) No weather for this Airport Unknown
Pickaway County Memorial (CYO) No weather for this Airport Unknown
Daviess County (DCY) KDCY 132255Z AUTO 18006KT 10SM -VCTSRA SCT080 SCT090 OVC110 22/21 A3001 RMK AO2 LTG DSNT ALQS T02200211 VFR
Delaware Municipal - Jim Moore Field (DLZ) No weather for this Airport Unknown
Stuart Powell Field (DVK) KDVK 132250Z AUTO 32004KT 10SM CLR 27/22 A3000 RMK AO2 VFR
Ashland Regional (DWU) No weather for this Airport Unknown
Appalachian Regional (EBD) No weather for this Airport Unknown
Bellefontaine Regional (EDJ) No weather for this Airport Unknown
Henderson City-County (EHR) KEHR 132256Z AUTO 08004KT 10SM SCT120 23/21 A2999 RMK AO2 SLP153 T02330211 VFR
Wayne County (EKQ) No weather for this Airport Unknown
Addington Field (EKX) No weather for this Airport Unknown
Pike County (EOP) No weather for this Airport Unknown
Eagle Creek Airpark (EYE) No weather for this Airport Unknown
Capital City (FFT) No weather for this Airport Unknown
Fleming-Mason (FGX) KFGX 132255Z AUTO 04004KT 10SM CLR 29/21 A3000 RMK AO2 T02900205 VFR
French Lick Municipal (FRH) No weather for this Airport Unknown
Gallia-Meigs Regional (GAS) No weather for this Airport Unknown
Brown County (GEO) No weather for this Airport Unknown
Shelbyville Municipal (GEZ) No weather for this Airport Unknown
Putnam County Regional (GPC) KGPC 132255Z AUTO 04004KT 10SM CLR 25/21 A3001 RMK AO2 T02530208 VFR
Butler Co Regional-Hogan Field (HAO) No weather for this Airport Unknown
Indy South Greenwood (HFY) KHFY 132255Z AUTO 00000KT 10SM CLR 28/21 A3001 RMK AO2 T02770209 VFR
Huntingburg (HNB) KHNB 132256Z AUTO 09004KT 6SM BR SCT070 BKN090 OVC110 22/22 A3002 RMK AO2 LTG DSNT NW SLP161 P0002 T02220222 VFR
Highland County (HOC) No weather for this Airport Unknown
Madison Municipal (IMS) No weather for this Airport Unknown
Mount Sterling-Montgomery County (IOB) KIOB 132255Z AUTO 07003KT 10SM CLR 30/21 A3000 RMK AO2 PWINO VFR
Julian Carroll (JKL) No weather for this Airport Unknown
Ohio County (JQD) No weather for this Airport Unknown
Clark Regional (JVY) KJVY 131815Z AUTO 06005KT 10SM SCT030 SCT035 BKN075 30/23 A3001 RMK AO2 LTG DSNT NW THRU E T02970231 VFR
Fairfield County (LHQ) KLHQ 132253Z AUTO 36003KT 10SM CLR 30/19 A2998 RMK AO2 SLP144 T03000189 VFR
Lonesome Pine (LNP) No weather for this Airport Unknown
London-Corbin Arpt-Magee Field (LOZ) KLOZ 132253Z AUTO 28003KT 10SM CLR 24/21 A2999 RMK AO2 WSHFT 2147 LTG DSNT S AND SW RAE32 SLP142 P0019 T02440211 VFR
Lawrenceville-Vincennes International (LWV) No weather for this Airport Unknown
Dayton-Wright Brothers (MGY) KMGY 132253Z AUTO 06003KT 10SM BKN055 29/19 A3000 RMK AO2 SLP150 T02890194 TSNO VFR
Indianapolis Regional (MQJ) No weather for this Airport Unknown
Union County (MRT) KMRT 132239Z AUTO 02005KT 10SM CLR 28/16 A3002 RMK AO1 VFR
Middletown Regional/Hook Field (MWO) KMWO 132255Z AUTO 34006KT 10SM CLR 29/20 A3000 RMK AO2 T02860203 VFR
North Vernon (OVO) No weather for this Airport Unknown
Miami University (OXD) KOXD 132159Z AUTO 00006KT 10SM CLR 29/24 A3002 RMK AO2 VFR
Pike County-Hatcher Field (PBX) KPBX 132255Z AUTO 04008G17KT 10SM -TSRA SCT031 BKN070 OVC080 22/22 A3004 RMK AO2 LTG DSNT ALQS T02190219 VFR
Greater Portsmouth Regional (PMH) KPMH 132315Z AUTO 00000KT 10SM CLR 30/20 A2998 RMK AO2 T02960200 VFR
Edgar County (PRG) No weather for this Airport Unknown
Central Kentucky Regional (RGA) KRGA 132255Z AUTO 00000KT 10SM SCT050 30/22 A2997 RMK AO2 VFR
Richmond Municipal (RID) KRID 132315Z AUTO 04006KT 10SM CLR 27/21 A3003 RMK AO2 VFR
Crawford Co (RSV) KRSV 132255Z AUTO 05005KT 10SM CLR 27/23 A3001 RMK AO2 LTG DSNT SE T02650229 VFR
Ross County (RZT) KRZT 132315Z AUTO 33004KT 10SM CLR 28/16 A2998 RMK AO2 PWINO VFR
Sidney Municipal (SCA) No weather for this Airport Unknown
Scott Municipal (SCX) KSCX 132255Z AUTO 20004KT 10SM CLR 24/22 A3002 RMK A01 VFR
Freeman Municipal (SER) No weather for this Airport Unknown
Springfield-Beckley Municipal (SGH) No weather for this Airport Unknown
Sullivan County (SIV) No weather for this Airport Unknown
Big Sandy Regional (SJS) KSJS 132250Z AUTO 14009KT 10SM SCT029 BKN039 OVC070 28/21 A3001 RMK AO2 T02800207 PNO VFR
Lake Cumberland Regional (SME) No weather for this Airport Unknown
Summersville (SXL) No weather for this Airport Unknown
Morehead-Rowan County Clyde A Thomas Regional (SYM) KSYM 132255Z AUTO 00000KT 10SM FEW044 FEW050 SCT075 29/21 A3000 RMK AO2 VFR
Perry County Municipal (TEL) No weather for this Airport Unknown
Sturgis Municipal (TWT) No weather for this Airport Unknown
Indianapolis Executive (TYQ) KTYQ 132255Z AUTO 00000KT 10SM CLR 25/22 A3003 RMK AO2 T02530221 VFR
Indianapolis Metropolitan (UMP) No weather for this Airport Unknown
Ohio University (UNI) KUNI 132255Z AUTO 36006KT 10SM SCT065 SCT080 32/17 A2996 RMK AO2 T03200172 VFR
Boggs Field (USW) No weather for this Airport Unknown
New Castle Henry County Marlatt Field (UWL) No weather for this Airport Unknown
Madison County (UYF) KUYF 132255Z AUTO 36005KT 10SM CLR 28/15 A3002 RMK AO2 VFR
Darke County (VES) KVES 132255Z AUTO 03003KT 10SM CLR 26/17 A3003 RMK AO2 VFR
Newark-Heath (VTA) KVTA 132254Z AUTO 02005KT 10SM BKN060 32/18 A2997 RMK AO2 SLP140 T03220178 VFR
Zanesville Municipal (ZZV) KZZV 132253Z AUTO 35004KT 10SM CLR 32/20 A2997 RMK AO2 SLP141 T03170200 VFR
Red Stewart Airfield (40I) No weather for this Airport Unknown
Dahio Trotwood (I44) No weather for this Airport Unknown
Mad River Airpark (I54) No weather for this Airport Unknown
Moraine Air Park (I73) No weather for this Airport Unknown
Alexandria (I99) No weather for this Airport Unknown
Fry (0OH8) No weather for this Airport Unknown
Fayette County Memorial Hospital (11OH) No weather for this Airport Unknown
Uk Hospital (37KY) No weather for this Airport Unknown
Andy Barnhart Memorial (3OH0) No weather for this Airport Unknown
Medical Center Albany (45KY) No weather for this Airport Unknown
Westlake Regional Hospital (48KY) No weather for this Airport Unknown
Manchester Memorial Hospital (4KY2) No weather for this Airport Unknown
Bethesda Hospital Helistop (4OH2) No weather for this Airport Unknown
Appalachian Regional Hospital (51KY) No weather for this Airport Unknown
Bedford Medical Center (57IN) No weather for this Airport Unknown
Union Hospital (60II) No weather for this Airport Unknown
Skydive Greene County Inc (7OA7) No weather for this Airport Unknown
Methodist Hospital Of In Inc (81II) No weather for this Airport Unknown
Saint Joseph Hospital (88KY) No weather for this Airport Unknown
Riverside Methodist Hospital (9OI9) No weather for this Airport Unknown
Decatur County Memorial Hospital (IN35) No weather for this Airport Unknown
Reid Hospital (IN68) No weather for this Airport Unknown
Ball Memorial Hospital (IN74) No weather for this Airport Unknown
Iu Health Morgan (IN84) No weather for this Airport Unknown
Grant Medical Center (OH01) No weather for this Airport Unknown
Knox Communicipalty Hospital (OH04) No weather for this Airport Unknown
O'Bleness Memorial Hospital (OH23) No weather for this Airport Unknown
Schaney'S Lair (OH46) No weather for this Airport Unknown
Southern Ohio Regional Medical Center (OH62) No weather for this Airport Unknown
Troy Skypark (OH71) No weather for this Airport Unknown
Nationwide Children'S Hospital (OI95) No weather for this Airport Unknown